Avao, Samoa

2:00 AM WSDT on October 22, 2014 (GMT +1400)
Faleolo International | Change Station
CLOSE
Current Station
Airport
Location: Faleolo,
Elevation: 16 ft
Nearby Weather Stations

Elev 16 ft 13.83 °S, 172.01 °W | Updated 1 hour ago

Partly Cloudy
Partly Cloudy
79 °F
Feels Like 79 °F
N
0
Wind Variable Wind from North

Today
High -- | Low -- °F
--% Chance of Precip.
Yesterday
High -- | Low -- °F
Precip. -- in
6:59 AM 7:28 PM
Waning Crescent, 6% visible
Pressure 29.89 in
Visibility 6.2 miles
Clouds Few 2400 ft
Dew Point 72 °F
Humidity 78%
Rainfall 0.00 in
Snow Depth Not available.
UV 0 out of 12
Pollen Not available.
Air Quality Not available.
Flu Activity Not available.
METAR NSFA 211100Z 00000KT 9999 FEW024 26/22 Q1012 RMK DEW

More Conditions Fewer Conditions

Pressure 29.89 in
Visibility 6.2 miles
Clouds Few 2400 ft
Dew Point 72 °F
Humidity 78%
Rainfall 0.00 in
Snow Depth Not available.
UV 0 out of 12
Pollen Not available.
Air Quality Not available.
Flu Activity Not available.
METAR NSFA 211100Z 00000KT 9999 FEW024 26/22 Q1012 RMK DEW

More Conditions Fewer Conditions

10-Day Weather Forecast

Almanac

Astronomy

Oct. 22, 2014 Rise Set
Actual Time 6:59 AM WSDT 7:28 PM WSDT
Civil Twilight 6:37 AM WSDT 7:50 PM WSDT
Nautical Twilight 6:12 AM WSDT 8:15 PM WSDT
Astronomical Twilight 5:46 AM WSDT 8:41 PM WSDT
Moon 5:33 AM WSDT (10/22) 6:01 PM WSDT (10/22)
Length of Visible Light 13h 12m
Length of Day
12h 28m
Tomorrow will be 0m 43s longer.
Waning Crescent, 6% of the Moon is Illuminated
Oct 21
Waning Crescent
Oct 23
New
Oct 30
First Quarter
Nov 6
Full
Nov 14
Last Quarter

Yesterday's Extremes

Country Highs Country Lows

Community

WunderPhotos

Upload Photos

1,763,640 photos uploaded!

Nearby

Snow Depth

Not available.

Earthquake Activity

City Distance Mag. Time & Date
No recent earthquake activity has been reported nearby.
Minimum magnitude displayed is 2.5.

Coastal Water Temperatures

Place Temperature
No Stations Reporting

Nearby Weather Stations